createdAt,value
2018-03-24T00:02:27.356Z,74.30
2018-03-24T00:04:54.813Z,73.90
2018-03-24T00:07:22.370Z,73.90
2018-03-24T00:09:50.599Z,73.80
2018-03-24T00:12:18.070Z,73.90
2018-03-24T00:14:45.542Z,73.80
2018-03-24T00:17:13.458Z,74.20
2018-03-24T00:19:41.956Z,74.40
2018-03-24T00:22:09.476Z,74.40
2018-03-24T00:24:37.553Z,74.40
2018-03-24T00:27:05.014Z,74.40
2018-03-24T00:29:34.101Z,74.70
2018-03-24T00:32:02.960Z,74.20
2018-03-24T00:34:30.825Z,74.20
2018-03-24T00:36:59.154Z,74.20
2018-03-24T00:39:27.643Z,74.20
2018-03-24T00:41:55.888Z,74.30
2018-03-24T00:44:23.662Z,74.30
2018-03-24T00:46:52.271Z,74.50
2018-03-24T00:49:21.862Z,74.50
2018-03-24T00:51:50.098Z,74.80
2018-03-24T00:54:17.558Z,74.70
2018-03-24T00:56:45.024Z,74.90
2018-03-24T00:59:12.494Z,75.00
2018-03-24T01:01:39.959Z,75.20
2018-03-24T01:04:07.422Z,75.20
2018-03-24T01:06:34.977Z,75.30
2018-03-24T01:09:02.603Z,75.30
2018-03-24T01:11:30.061Z,75.30
2018-03-24T01:13:58.482Z,75.70
2018-03-24T01:16:26.370Z,75.60
2018-03-24T01:18:53.826Z,75.70
2018-03-24T01:21:22.323Z,76.00
2018-03-24T01:23:51.159Z,76.00
2018-03-24T01:26:19.687Z,76.00
2018-03-24T01:28:47.919Z,76.40
2018-03-24T01:31:15.383Z,76.40
2018-03-24T01:33:42.830Z,76.40
2018-03-24T01:36:10.306Z,76.40
2018-03-24T01:38:38.134Z,76.40
2018-03-24T01:41:06.102Z,76.50
2018-03-24T01:43:33.628Z,76.50
2018-03-24T01:46:01.334Z,76.60
2018-03-24T01:48:28.848Z,76.70
2018-03-24T01:50:57.935Z,77.50
2018-03-24T01:53:38.183Z,77.50
2018-03-24T01:56:06.399Z,77.50
2018-03-24T01:58:34.053Z,77.50
2018-03-24T02:01:03.210Z,77.90
2018-03-24T02:03:31.386Z,77.90
2018-03-24T02:05:58.852Z,78.00
2018-03-24T02:08:26.322Z,78.20
2018-03-24T02:10:54.095Z,78.50
2018-03-24T02:13:22.314Z,78.40
2018-03-24T02:15:50.530Z,78.30
2018-03-24T02:18:18.291Z,78.30
2018-03-24T02:20:46.528Z,78.50
2018-03-24T02:23:13.978Z,78.70
2018-03-24T02:25:41.548Z,78.80
2018-03-24T02:28:09.871Z,79.00
2018-03-24T02:30:37.341Z,79.10
2018-03-24T02:33:07.141Z,79.50
2018-03-24T02:35:34.723Z,79.50
2018-03-24T02:38:03.866Z,79.60
2018-03-24T02:40:31.359Z,79.50
2018-03-24T02:42:59.431Z,79.70
2018-03-24T02:45:26.997Z,79.80
2018-03-24T02:47:54.455Z,79.80
2018-03-24T02:50:21.914Z,79.90
2018-03-24T02:52:50.142Z,80.30
2018-03-24T02:55:17.868Z,80.30
2018-03-24T02:57:46.128Z,80.50
2018-03-24T03:00:13.583Z,80.50
2018-03-24T03:02:41.247Z,80.50
2018-03-24T03:05:08.706Z,80.40
2018-03-24T03:07:36.174Z,80.60
2018-03-24T03:10:03.648Z,80.80
2018-03-24T03:12:32.599Z,81.20
2018-03-24T03:15:00.065Z,81.10
2018-03-24T03:17:27.873Z,81.30
2018-03-24T03:19:55.313Z,81.10
2018-03-24T03:22:24.147Z,81.30
2018-03-24T03:24:52.716Z,81.30
2018-03-24T03:27:20.191Z,81.30
2018-03-24T03:29:47.647Z,81.20
2018-03-24T03:32:25.019Z,81.20
2018-03-24T03:34:52.469Z,81.20
2018-03-24T03:37:19.938Z,82.00
2018-03-24T03:39:47.614Z,81.20
2018-03-24T03:42:15.078Z,81.40
2018-03-24T03:44:42.571Z,81.70
2018-03-24T03:47:10.035Z,81.50
2018-03-24T03:49:37.590Z,81.60
2018-03-24T03:52:05.679Z,81.50
2018-03-24T03:54:33.929Z,82.30
2018-03-24T03:57:01.711Z,81.70
2018-03-24T03:59:29.173Z,81.80
2018-03-24T04:01:56.641Z,81.70
2018-03-24T04:04:25.598Z,81.70
2018-03-24T04:06:53.071Z,81.50
2018-03-24T04:09:21.223Z,81.60
2018-03-24T04:11:48.702Z,81.50
2018-03-24T04:14:17.208Z,81.50
2018-03-24T04:16:45.436Z,82.00
2018-03-24T04:19:12.905Z,81.90
2018-03-24T04:21:40.538Z,82.00
2018-03-24T04:24:08.767Z,81.70
2018-03-24T04:26:36.237Z,81.90
2018-03-24T04:29:03.879Z,81.70
2018-03-24T04:31:31.704Z,81.20
2018-03-24T04:33:59.218Z,81.90
2018-03-24T04:36:27.514Z,82.00
2018-03-24T04:38:55.734Z,81.90
2018-03-24T04:41:24.697Z,81.80
2018-03-24T04:43:52.160Z,81.90
2018-03-24T04:46:19.630Z,81.70
2018-03-24T04:48:47.314Z,81.80
2018-03-24T04:51:14.776Z,81.80
2018-03-24T04:53:42.407Z,81.90
2018-03-24T04:56:09.967Z,81.80
2018-03-24T04:58:38.035Z,81.80
2018-03-24T05:01:05.874Z,81.80
2018-03-24T05:03:34.093Z,81.70
2018-03-24T05:06:01.590Z,81.70
2018-03-24T05:08:29.053Z,81.40
2018-03-24T05:10:56.606Z,81.40
2018-03-24T05:13:24.059Z,81.30
2018-03-24T05:15:51.623Z,81.30
2018-03-24T05:18:19.414Z,81.30
2018-03-24T05:20:47.642Z,81.40
2018-03-24T05:23:15.115Z,81.30
2018-03-24T05:25:42.574Z,81.90
2018-03-24T05:28:10.348Z,81.20
2018-03-24T05:30:38.630Z,81.20
2018-03-24T05:33:07.942Z,81.30
2018-03-24T05:35:36.181Z,81.20
2018-03-24T05:38:04.058Z,81.20
2018-03-24T05:40:32.984Z,81.20
2018-03-24T05:43:01.430Z,81.00
2018-03-24T05:45:29.003Z,80.80
2018-03-24T05:47:56.466Z,80.80
2018-03-24T05:50:25.355Z,80.70
2018-03-24T05:52:52.915Z,80.50
2018-03-24T05:55:20.374Z,80.40
2018-03-24T05:57:47.838Z,80.40
2018-03-24T06:00:17.026Z,80.10
2018-03-24T06:02:44.495Z,80.00
2018-03-24T06:05:11.952Z,79.80
2018-03-24T06:07:39.614Z,79.60
2018-03-24T06:10:07.171Z,79.70
2018-03-24T06:12:35.454Z,79.40
2018-03-24T06:15:03.691Z,78.50
2018-03-24T06:17:31.142Z,78.50
2018-03-24T06:19:59.076Z,78.20
2018-03-24T06:22:28.374Z,77.80
2018-03-24T06:24:56.590Z,78.30
2018-03-24T06:27:24.061Z,77.50
2018-03-24T06:29:51.523Z,77.20
2018-03-24T06:32:18.990Z,76.80
2018-03-24T06:34:46.442Z,76.80
2018-03-24T06:37:17.755Z,77.10
2018-03-24T06:39:45.979Z,76.40
2018-03-24T06:42:13.439Z,75.90
2018-03-24T06:44:41.764Z,75.00
2018-03-24T06:47:12.045Z,74.30
2018-03-24T06:49:39.513Z,74.20
2018-03-24T06:52:08.541Z,74.20
2018-03-24T06:54:35.993Z,73.30
2018-03-24T06:57:03.463Z,73.20
2018-03-24T06:59:31.031Z,73.20
2018-03-24T07:01:59.034Z,72.70
2018-03-24T07:04:26.486Z,72.20
2018-03-24T07:06:54.366Z,71.60
2018-03-24T07:09:22.039Z,71.40
2018-03-24T07:11:49.865Z,70.90
2018-03-24T07:14:17.398Z,70.20
2018-03-24T07:16:45.208Z,70.70
2018-03-24T07:19:12.783Z,70.30
2018-03-24T07:21:41.014Z,69.50
2018-03-24T07:24:08.998Z,69.50
2018-03-24T07:26:36.471Z,68.90
2018-03-24T07:29:03.927Z,67.80
2018-03-24T07:31:31.511Z,68.30
2018-03-24T07:33:59.743Z,67.30
2018-03-24T07:36:29.706Z,66.70
2018-03-24T07:38:59.056Z,65.80
2018-03-24T07:41:27.812Z,65.10
2018-03-24T07:43:56.067Z,65.90
2018-03-24T07:46:24.096Z,65.80
2018-03-24T07:48:52.302Z,63.30
2018-03-24T07:51:20.482Z,63.20
2018-03-24T07:53:50.117Z,62.80
2018-03-24T07:56:19.026Z,62.30
2018-03-24T07:58:46.490Z,62.30
2018-03-24T08:01:13.999Z,61.30
2018-03-24T08:03:42.236Z,59.60
2018-03-24T08:06:09.798Z,59.60
2018-03-24T08:08:38.219Z,59.50
2018-03-24T08:11:06.449Z,59.30
2018-03-24T08:13:33.918Z,59.30
2018-03-24T08:16:01.383Z,58.30
2018-03-24T08:18:29.670Z,58.30
2018-03-24T08:20:57.207Z,58.70
2018-03-24T08:23:25.311Z,57.90
2018-03-24T08:25:52.766Z,56.60
2018-03-24T08:28:20.741Z,56.50
2018-03-24T08:30:48.515Z,56.30
2018-03-24T08:33:17.055Z,55.50
2018-03-24T08:35:45.307Z,54.80
2018-03-24T08:38:13.539Z,53.70
2018-03-24T08:40:41.339Z,53.70
2018-03-24T08:43:09.655Z,53.10
2018-03-24T08:45:37.094Z,53.10
2018-03-24T08:48:05.138Z,52.60
2018-03-24T08:50:33.658Z,52.80
2018-03-24T08:53:01.518Z,52.50
2018-03-24T08:55:29.457Z,52.40
2018-03-24T08:57:57.654Z,51.60
2018-03-24T09:00:25.114Z,51.10
2018-03-24T09:02:52.578Z,51.00
2018-03-24T09:05:20.031Z,51.00
2018-03-24T09:07:47.486Z,50.90
2018-03-24T09:10:16.811Z,50.00
2018-03-24T09:12:45.720Z,50.00
2018-03-24T09:15:13.214Z,49.40
2018-03-24T09:17:40.724Z,49.00
2018-03-24T09:20:08.886Z,49.60
2018-03-24T09:22:36.723Z,48.30
2018-03-24T09:25:05.182Z,47.40
2018-03-24T09:27:33.660Z,46.70
2018-03-24T09:30:01.136Z,47.30
2018-03-24T09:32:28.587Z,47.20
2018-03-24T09:34:56.557Z,47.80
2018-03-24T09:37:24.027Z,47.70
2018-03-24T09:39:52.444Z,48.50
2018-03-24T09:42:19.902Z,47.70
2018-03-24T09:44:47.359Z,47.10
2018-03-24T09:47:14.828Z,49.00
2018-03-24T09:49:42.291Z,49.60
2018-03-24T09:52:09.818Z,46.60
2018-03-24T09:54:38.082Z,49.80
2018-03-24T09:57:05.555Z,49.70
2018-03-24T09:59:33.019Z,50.60
2018-03-24T10:02:00.534Z,46.90
2018-03-24T10:04:28.710Z,46.60
2018-03-24T10:06:57.635Z,47.60
2018-03-24T10:09:25.876Z,45.80
2018-03-24T10:11:54.158Z,45.80
2018-03-24T10:14:21.742Z,47.20
2018-03-24T10:16:49.963Z,44.90
2018-03-24T10:19:18.371Z,44.90
2018-03-24T10:25:03.628Z,45.50
2018-03-24T10:27:31.175Z,45.30
2018-03-24T10:29:58.635Z,46.00
2018-03-24T10:32:26.103Z,47.50
2018-03-24T10:34:59.714Z,46.70
2018-03-24T10:37:27.195Z,46.80
2018-03-24T10:39:54.647Z,47.50
2018-03-24T10:42:22.640Z,46.40
2018-03-24T10:44:50.102Z,46.30
2018-03-24T10:47:17.659Z,47.50
2018-03-24T10:49:45.839Z,44.60
2018-03-24T10:52:13.408Z,45.00
2018-03-24T10:54:41.680Z,42.90
2018-03-24T10:57:09.130Z,42.80
2018-03-24T10:59:36.678Z,42.90
2018-03-24T11:02:04.134Z,44.40
2018-03-24T11:04:31.690Z,44.10
2018-03-24T11:06:59.261Z,45.20
2018-03-24T11:09:27.870Z,44.60
2018-03-24T11:11:55.407Z,45.40
2018-03-24T11:14:23.663Z,46.20
2018-03-24T11:16:51.146Z,44.50
2018-03-24T11:19:18.658Z,45.00
2018-03-24T11:21:46.106Z,46.80
2018-03-24T11:24:13.986Z,46.00
2018-03-24T11:26:42.026Z,43.20
2018-03-24T11:29:10.264Z,43.80
2018-03-24T11:31:38.115Z,43.90
2018-03-24T11:34:05.906Z,45.40
2018-03-24T11:36:33.729Z,44.20
2018-03-24T11:39:01.267Z,42.70
2018-03-24T11:41:29.516Z,43.30
2018-03-24T11:43:56.976Z,43.30
2018-03-24T11:46:24.522Z,43.90
2018-03-24T11:48:52.382Z,44.40
2018-03-24T11:51:20.365Z,42.50
2018-03-24T11:53:47.827Z,43.40
2018-03-24T11:56:15.287Z,43.60
2018-03-24T11:58:43.059Z,44.50
2018-03-24T12:01:11.414Z,44.90
2018-03-24T12:03:39.017Z,44.80
2018-03-24T12:06:06.458Z,44.90
2018-03-24T12:08:33.932Z,43.60
2018-03-24T12:11:02.153Z,43.70
2018-03-24T12:13:29.612Z,43.60
2018-03-24T12:15:57.130Z,43.20
2018-03-24T12:18:26.066Z,42.70
2018-03-24T12:20:53.552Z,42.70
2018-03-24T12:23:21.494Z,42.80
2018-03-24T12:25:48.978Z,42.50
2018-03-24T12:28:17.175Z,42.90
2018-03-24T12:30:45.422Z,42.10
2018-03-24T12:33:12.888Z,42.10
2018-03-24T12:35:40.350Z,44.00
2018-03-24T12:38:08.043Z,44.20
2018-03-24T12:40:35.839Z,43.80
2018-03-24T12:43:03.323Z,42.20
2018-03-24T12:45:31.470Z,41.60
2018-03-24T12:47:58.934Z,41.10
2018-03-24T12:50:26.398Z,42.50
2018-03-24T12:52:53.858Z,43.20
2018-03-24T12:55:21.322Z,44.70
2018-03-24T12:57:48.935Z,43.30
2018-03-24T13:00:16.564Z,43.40
2018-03-24T13:02:44.010Z,41.60
2018-03-24T13:05:11.462Z,41.30
2018-03-24T13:07:39.169Z,42.40
2018-03-24T13:10:07.399Z,41.30
2018-03-24T13:12:34.855Z,41.20
2018-03-24T13:15:02.319Z,43.20
2018-03-24T13:17:30.298Z,41.00
2018-03-24T13:19:57.764Z,41.20
2018-03-24T13:22:25.419Z,40.50
2018-03-24T13:24:52.883Z,41.70
2018-03-24T13:27:20.338Z,40.70
2018-03-24T13:29:47.808Z,42.30
2018-03-24T13:32:16.854Z,41.30
2018-03-24T13:34:44.558Z,41.60
2018-03-24T13:37:12.011Z,41.20
2018-03-24T13:39:39.778Z,40.90
2018-03-24T13:42:07.226Z,39.60
2018-03-24T13:44:34.686Z,40.50
2018-03-24T13:47:02.159Z,39.20
2018-03-24T13:49:30.638Z,39.90
2018-03-24T13:51:58.966Z,39.70
2018-03-24T13:54:26.426Z,39.50
2018-03-24T13:56:54.950Z,38.70
2018-03-24T13:59:22.922Z,38.90
2018-03-24T14:01:50.595Z,39.00
2018-03-24T14:04:18.858Z,38.00
2018-03-24T14:06:46.330Z,38.50
2018-03-24T14:09:14.088Z,39.40
2018-03-24T14:11:42.354Z,39.50
2018-03-24T14:14:11.410Z,38.00
2018-03-24T14:16:38.866Z,36.80
2018-03-24T14:19:06.375Z,37.40
2018-03-24T14:21:34.566Z,37.40
2018-03-24T14:24:03.123Z,37.10
2018-03-24T14:26:30.600Z,37.00
2018-03-24T14:28:58.564Z,36.80
2018-03-24T14:31:26.866Z,36.70
2018-03-24T14:33:55.097Z,36.50
2018-03-24T14:36:22.550Z,37.30
2018-03-24T14:38:50.036Z,37.40
2018-03-24T14:41:17.491Z,39.10
2018-03-24T14:43:44.969Z,40.10
2018-03-24T14:46:13.850Z,42.30
2018-03-24T14:48:42.054Z,42.30
2018-03-24T14:51:09.679Z,43.30
2018-03-24T14:53:37.134Z,41.20
2018-03-24T14:56:04.597Z,41.70
2018-03-24T14:58:32.155Z,42.50
2018-03-24T15:00:59.726Z,43.20
2018-03-24T15:03:27.194Z,43.50
2018-03-24T15:05:56.887Z,44.00
2018-03-24T15:08:24.437Z,44.00
2018-03-24T15:10:51.907Z,42.20
2018-03-24T15:13:19.542Z,43.10
2018-03-24T15:15:48.486Z,44.00
2018-03-24T15:18:16.710Z,43.10
2018-03-24T15:20:44.826Z,43.10
2018-03-24T15:23:14.219Z,45.00
2018-03-24T15:25:43.183Z,43.50
2018-03-24T15:28:11.102Z,43.30
2018-03-24T15:30:59.987Z,42.00
2018-03-24T15:33:39.249Z,42.50
2018-03-24T15:36:18.734Z,43.10
2018-03-24T15:38:46.972Z,45.70
2018-03-24T15:41:15.869Z,45.70
2018-03-24T15:43:43.338Z,46.50
2018-03-24T15:46:10.834Z,46.80
2018-03-24T15:48:38.683Z,47.30
2018-03-24T15:51:06.938Z,47.30
2018-03-24T15:53:34.413Z,47.30
2018-03-24T15:56:02.694Z,47.70
2018-03-24T15:58:30.118Z,47.60
2018-03-24T16:00:57.571Z,47.90
2018-03-24T16:03:25.037Z,48.70
2018-03-24T16:05:52.512Z,48.60
2018-03-24T16:08:19.970Z,48.80
2018-03-24T16:10:48.550Z,49.30
2018-03-24T16:13:16.535Z,49.30
2018-03-24T16:15:44.826Z,48.80
2018-03-24T16:18:12.287Z,48.80
2018-03-24T16:20:39.785Z,48.30
2018-03-24T16:23:07.953Z,48.50
2018-03-24T16:25:35.634Z,48.70
2018-03-24T16:28:03.976Z,48.60
2018-03-24T16:30:31.451Z,49.10
2018-03-24T16:33:00.068Z,49.20
2018-03-24T16:35:28.354Z,49.80
2018-03-24T16:37:55.810Z,49.80
2018-03-24T16:40:23.726Z,49.40
2018-03-24T16:42:52.499Z,50.30
2018-03-24T16:45:20.560Z,50.10
2018-03-24T16:47:48.866Z,50.50
2018-03-24T16:50:16.319Z,50.50
2018-03-24T16:52:43.786Z,50.60
2018-03-24T16:55:12.673Z,50.60
2018-03-24T16:57:41.187Z,50.90
2018-03-24T17:00:09.054Z,51.40
2018-03-24T17:02:37.071Z,51.40
2018-03-24T17:05:04.530Z,51.50
2018-03-24T17:07:33.939Z,51.90
2018-03-24T17:10:02.191Z,51.90
2018-03-24T17:12:30.100Z,52.20
2018-03-24T17:14:58.110Z,52.40
2018-03-24T17:17:25.843Z,52.60
2018-03-24T17:19:54.209Z,52.70
2018-03-24T17:22:21.728Z,52.90
2018-03-24T17:24:49.188Z,53.20
2018-03-24T17:27:17.299Z,53.30
2018-03-24T17:29:44.780Z,53.60
2018-03-24T17:32:13.015Z,53.80
2018-03-24T17:34:40.481Z,54.30
2018-03-24T17:37:07.987Z,54.40
2018-03-24T17:39:36.146Z,54.50
2018-03-24T17:42:03.603Z,54.90
2018-03-24T17:44:31.062Z,55.00
2018-03-24T17:46:59.534Z,55.60
2018-03-24T17:49:27.024Z,55.50
2018-03-24T17:51:54.854Z,55.60
2018-03-24T17:54:22.311Z,56.00
2018-03-24T17:56:49.774Z,56.10
2018-03-24T17:59:17.747Z,56.20
2018-03-24T18:01:46.687Z,56.30
2018-03-24T18:50:56.441Z,56.70
2018-03-24T18:53:23.915Z,61.50
2018-03-24T18:55:51.603Z,61.20
2018-03-24T18:58:19.136Z,61.70
2018-03-24T19:00:47.296Z,61.40
2018-03-24T19:03:15.743Z,61.40
2018-03-24T19:05:43.819Z,61.90
2018-03-24T19:08:12.108Z,61.80
2018-03-24T19:10:39.947Z,61.10
2018-03-24T19:13:08.270Z,61.40
2018-03-24T19:15:35.739Z,61.60
2018-03-24T19:18:03.195Z,61.60
2018-03-24T19:20:31.438Z,61.90
2018-03-24T19:22:58.895Z,61.90
2018-03-24T19:25:26.795Z,62.10
2018-03-24T19:27:55.430Z,62.30
2018-03-24T19:30:23.815Z,64.00
2018-03-24T19:32:51.271Z,63.30
2018-03-24T19:35:18.743Z,63.70
2018-03-24T19:37:47.130Z,63.60
2018-03-24T19:40:14.606Z,64.60
2018-03-24T19:42:43.202Z,63.70
2018-03-24T19:45:10.659Z,64.30
2018-03-24T19:47:38.123Z,64.50
2018-03-24T19:50:06.802Z,65.80
2018-03-24T19:52:35.027Z,65.20
2018-03-24T19:55:02.520Z,65.20
2018-03-24T19:57:30.043Z,64.70
2018-03-24T19:59:57.802Z,65.10
2018-03-24T20:02:26.019Z,64.70
2018-03-24T20:04:53.606Z,64.60
2018-03-24T20:07:22.971Z,65.80
2018-03-24T20:09:51.395Z,65.70
2018-03-24T20:12:18.866Z,66.00
2018-03-24T20:14:47.215Z,64.90
2018-03-24T20:17:14.784Z,64.90
2018-03-24T20:19:43.015Z,65.80
2018-03-24T20:22:10.489Z,66.30
2018-03-24T20:24:38.030Z,66.00
2018-03-24T20:27:05.516Z,66.40
2018-03-24T20:29:33.029Z,66.90
2018-03-24T20:32:01.496Z,66.90
2018-03-24T20:34:29.731Z,67.00
2018-03-24T20:36:57.232Z,67.00
2018-03-24T20:39:25.487Z,68.60
2018-03-24T20:41:54.854Z,67.70
2018-03-24T20:44:22.328Z,68.20
2018-03-24T20:46:49.832Z,68.60
2018-03-24T20:49:18.107Z,67.60
2018-03-24T20:51:46.363Z,68.50
2018-03-24T20:54:14.594Z,69.50
2018-03-24T20:56:42.059Z,69.60
2018-03-24T20:59:09.626Z,69.50
2018-03-24T21:01:37.119Z,70.10
2018-03-24T21:04:05.763Z,70.40
2018-03-24T21:06:33.875Z,70.40
2018-03-24T21:09:01.540Z,70.20
2018-03-24T21:11:29.767Z,70.30
2018-03-24T21:13:57.272Z,70.30
2018-03-24T21:16:24.730Z,70.50
2018-03-24T21:18:52.197Z,71.00
2018-03-24T21:21:19.659Z,71.50
2018-03-24T21:23:47.114Z,71.30
2018-03-24T21:26:15.355Z,71.20
2018-03-24T21:28:43.996Z,71.20
2018-03-24T21:31:12.878Z,71.20
2018-03-24T21:33:41.194Z,71.30
2018-03-24T21:36:08.658Z,71.10
2018-03-24T21:38:37.046Z,71.90
2018-03-24T21:41:04.515Z,71.70
2018-03-24T21:43:31.970Z,71.30
2018-03-24T21:45:59.877Z,71.50
2018-03-24T21:48:28.130Z,71.10
2018-03-24T21:50:55.607Z,71.00
2018-03-24T21:53:24.234Z,72.00
2018-03-24T21:55:51.734Z,71.90
2018-03-24T21:58:19.865Z,72.20
2018-03-24T22:00:47.369Z,71.60
2018-03-24T22:03:14.871Z,72.50
2018-03-24T22:05:42.649Z,72.30
2018-03-24T22:08:10.106Z,72.00
2018-03-24T22:10:37.611Z,72.60
2018-03-24T22:13:05.061Z,72.30
2018-03-24T22:15:32.975Z,72.60
2018-03-24T22:18:00.440Z,73.00
2018-03-24T22:20:27.895Z,73.00
2018-03-24T22:22:56.148Z,73.50
2018-03-24T22:25:24.613Z,72.50
2018-03-24T22:27:52.070Z,72.50
2018-03-24T22:30:19.527Z,71.90
2018-03-24T22:32:47.082Z,71.80
2018-03-24T22:35:15.758Z,72.20
2018-03-24T22:37:44.050Z,72.50
2018-03-24T22:40:12.151Z,73.20
2018-03-24T22:42:40.383Z,72.50
2018-03-24T22:45:08.572Z,72.50
2018-03-24T22:47:36.126Z,72.60
2018-03-24T22:50:03.698Z,73.10
2018-03-24T22:52:32.135Z,73.40
2018-03-24T22:55:00.250Z,73.60
2018-03-24T22:57:28.427Z,73.50
2018-03-24T22:59:55.886Z,73.50
2018-03-24T23:02:23.347Z,73.70
2018-03-24T23:04:51.621Z,73.80
2018-03-24T23:07:19.091Z,74.60
2018-03-24T23:09:46.555Z,74.10
2018-03-24T23:12:14.420Z,75.20
2018-03-24T23:14:43.496Z,74.50
2018-03-24T23:17:11.972Z,74.30
2018-03-24T23:19:39.464Z,74.30
2018-03-24T23:22:08.319Z,75.00
2018-03-24T23:24:35.913Z,74.90
2018-03-24T23:27:04.145Z,74.00
2018-03-24T23:29:32.525Z,74.00
2018-03-24T23:32:00.040Z,74.20
2018-03-24T23:34:29.107Z,73.40
2018-03-24T23:36:56.557Z,73.30
2018-03-24T23:39:24.022Z,72.90
2018-03-24T23:41:51.479Z,72.60
2018-03-24T23:44:19.033Z,72.90
2018-03-24T23:46:46.498Z,73.60
2018-03-24T23:49:13.950Z,74.00
2018-03-24T23:51:41.433Z,74.70
2018-03-24T23:54:10.219Z,74.70
2018-03-24T23:56:38.678Z,74.50
2018-03-24T23:59:06.685Z,74.30
